createdAt,value
2018-09-08T00:00:01.596Z,15.17
2018-09-08T00:01:01.784Z,15.27
2018-09-08T00:02:01.919Z,15.20
2018-09-08T00:03:02.057Z,15.19
2018-09-08T00:04:02.188Z,15.11
2018-09-08T00:05:02.353Z,15.14
2018-09-08T00:06:02.498Z,15.07
2018-09-08T00:07:02.635Z,15.03
2018-09-08T00:08:02.785Z,15.01
2018-09-08T00:09:02.931Z,15.04
2018-09-08T00:10:03.063Z,15.07
2018-09-08T00:11:03.198Z,15.03
2018-09-08T00:12:03.337Z,15.03
2018-09-08T00:13:03.493Z,15.08
2018-09-08T00:14:03.632Z,15.08
2018-09-08T00:15:03.764Z,15.03
2018-09-08T00:16:03.897Z,14.97
2018-09-08T00:17:04.048Z,15.01
2018-09-08T00:18:05.089Z,15.10
2018-09-08T00:19:04.370Z,14.99
2018-09-08T00:20:04.508Z,15.04
2018-09-08T00:21:04.718Z,15.01
2018-09-08T00:22:04.722Z,14.96
2018-09-08T00:23:04.862Z,15.03
2018-09-08T00:24:04.992Z,14.99
2018-09-08T00:25:05.133Z,14.92
2018-09-08T00:26:05.267Z,14.92
2018-09-08T00:27:05.404Z,14.90
2018-09-08T00:28:05.548Z,14.97
2018-09-08T00:29:05.681Z,14.95
2018-09-08T00:30:05.813Z,14.92
2018-09-08T00:31:05.951Z,14.93
2018-09-08T00:32:06.086Z,14.93
2018-09-08T00:33:06.223Z,14.89
2018-09-08T00:34:06.358Z,15.03
2018-09-08T00:35:06.489Z,14.99
2018-09-08T00:36:06.623Z,14.97
2018-09-08T00:37:06.762Z,14.97
2018-09-08T00:38:06.895Z,15.03
2018-09-08T00:39:07.031Z,14.99
2018-09-08T00:40:07.166Z,15.03
2018-09-08T00:41:07.303Z,14.97
2018-09-08T00:42:07.444Z,15.01
2018-09-08T00:43:07.573Z,14.95
2018-09-08T00:44:07.715Z,14.97
2018-09-08T00:45:07.845Z,14.87
2018-09-08T00:46:07.984Z,14.95
2018-09-08T00:47:08.134Z,14.92
2018-09-08T00:48:08.260Z,14.93
2018-09-08T00:49:08.395Z,14.96
2018-09-08T00:50:08.538Z,14.90
2018-09-08T00:51:08.678Z,14.85
2018-09-08T00:52:08.814Z,14.87
2018-09-08T00:53:08.950Z,14.95
2018-09-08T00:54:09.082Z,14.83
2018-09-08T00:55:09.215Z,14.97
2018-09-08T00:56:09.349Z,14.87
2018-09-08T00:57:09.559Z,14.90
2018-09-08T00:58:09.635Z,14.79
2018-09-08T00:59:09.773Z,14.85
2018-09-08T01:00:09.906Z,14.86
2018-09-08T01:01:10.052Z,14.83
2018-09-08T01:02:10.194Z,14.83
2018-09-08T01:03:10.326Z,14.78
2018-09-08T01:04:10.468Z,14.66
2018-09-08T01:05:10.595Z,14.87
2018-09-08T01:06:10.724Z,14.70
2018-09-08T01:07:10.858Z,14.71
2018-09-08T01:08:10.989Z,14.73
2018-09-08T01:09:11.145Z,14.63
2018-09-08T01:10:11.278Z,14.77
2018-09-08T01:11:11.414Z,14.70
2018-09-08T01:12:11.558Z,14.64
2018-09-08T01:13:11.692Z,14.58
2018-09-08T01:14:11.827Z,14.61
2018-09-08T01:15:11.962Z,14.66
2018-09-08T01:16:12.191Z,14.53
2018-09-08T01:17:12.194Z,14.53
2018-09-08T01:18:12.330Z,14.59
2018-09-08T01:19:12.465Z,14.58
2018-09-08T01:20:12.626Z,14.55
2018-09-08T01:21:12.767Z,14.31
2018-09-08T01:22:12.904Z,14.26
2018-09-08T01:23:13.043Z,14.22
2018-09-08T01:24:13.184Z,14.28
2018-09-08T01:25:13.311Z,14.33
2018-09-08T01:26:13.446Z,14.23
2018-09-08T01:27:13.604Z,14.26
2018-09-08T01:28:13.731Z,14.21
2018-09-08T01:29:13.868Z,14.22
2018-09-08T01:30:14.032Z,14.11
2018-09-08T01:31:14.158Z,14.18
2018-09-08T01:32:14.297Z,14.13
2018-09-08T01:33:14.450Z,13.96
2018-09-08T01:34:14.588Z,14.03
2018-09-08T01:35:14.721Z,13.88
2018-09-08T01:36:14.879Z,13.80
2018-09-08T01:37:15.006Z,13.71
2018-09-08T01:38:15.141Z,13.67
2018-09-08T01:39:15.277Z,13.73
2018-09-08T01:40:15.418Z,13.78
2018-09-08T01:41:15.557Z,13.72
2018-09-08T01:42:15.690Z,13.67
2018-09-08T01:43:15.819Z,13.60
2018-09-08T01:44:15.959Z,13.49
2018-09-08T01:45:16.094Z,13.36
2018-09-08T01:46:16.237Z,13.55
2018-09-08T01:47:16.372Z,13.55
2018-09-08T01:48:17.108Z,13.63
2018-09-08T01:49:16.645Z,13.57
2018-09-08T01:50:16.777Z,13.40
2018-09-08T01:51:16.913Z,13.47
2018-09-08T01:52:17.051Z,13.40
2018-09-08T01:53:17.188Z,13.38
2018-09-08T01:54:17.320Z,13.36
2018-09-08T01:55:17.453Z,13.49
2018-09-08T01:56:17.589Z,13.40
2018-09-08T01:57:17.727Z,13.26
2018-09-08T01:58:17.864Z,13.23
2018-09-08T01:59:18.006Z,13.35
2018-09-08T02:00:18.143Z,13.36
2018-09-08T02:01:18.277Z,13.35
2018-09-08T02:02:18.407Z,13.39
2018-09-08T02:03:18.547Z,13.42
2018-09-08T02:04:18.678Z,13.47
2018-09-08T02:05:18.814Z,13.40
2018-09-08T02:06:18.947Z,13.26
2018-09-08T02:07:19.083Z,13.29
2018-09-08T02:08:19.214Z,13.13
2018-09-08T02:09:19.349Z,13.14
2018-09-08T02:10:19.476Z,13.32
2018-09-08T02:11:19.613Z,13.21
2018-09-08T02:12:19.746Z,13.02
2018-09-08T02:13:19.880Z,13.16
2018-09-08T02:14:20.030Z,13.06
2018-09-08T02:15:20.163Z,13.06
2018-09-08T02:16:20.298Z,13.26
2018-09-08T02:17:20.451Z,13.09
2018-09-08T02:18:20.600Z,13.09
2018-09-08T02:19:20.734Z,13.11
2018-09-08T02:20:20.866Z,13.11
2018-09-08T02:21:21.045Z,13.04
2018-09-08T02:22:21.158Z,13.13
2018-09-08T02:23:21.290Z,13.05
2018-09-08T02:24:21.430Z,13.09
2018-09-08T02:25:21.578Z,13.08
2018-09-08T02:26:21.704Z,13.08
2018-09-08T02:27:21.831Z,12.86
2018-09-08T02:28:21.992Z,12.77
2018-09-08T02:29:22.120Z,12.80
2018-09-08T02:30:22.257Z,12.62
2018-09-08T02:31:22.391Z,12.46
2018-09-08T02:32:22.548Z,12.55
2018-09-08T02:33:22.674Z,12.65
2018-09-08T02:34:22.807Z,12.71
2018-09-08T02:35:22.935Z,12.73
2018-09-08T02:36:23.085Z,12.72
2018-09-08T02:37:23.214Z,12.73
2018-09-08T02:38:23.349Z,12.71
2018-09-08T02:39:23.487Z,12.68
2018-09-08T02:40:23.633Z,12.61
2018-09-08T02:41:23.767Z,12.44
2018-09-08T02:42:23.906Z,12.29
2018-09-08T02:43:24.063Z,12.41
2018-09-08T02:44:24.194Z,12.32
2018-09-08T02:45:24.332Z,12.28
2018-09-08T02:46:24.472Z,12.32
2018-09-08T02:47:24.602Z,12.41
2018-09-08T02:48:24.734Z,12.47
2018-09-08T02:49:24.870Z,12.55
2018-09-08T02:50:25.009Z,12.63
2018-09-08T02:51:25.165Z,12.58
2018-09-08T02:52:25.294Z,12.68
2018-09-08T02:53:25.431Z,12.68
2018-09-08T02:54:25.561Z,12.80
2018-09-08T02:55:25.709Z,12.79
2018-09-08T02:56:25.846Z,12.84
2018-09-08T02:57:25.976Z,12.84
2018-09-08T02:58:26.118Z,12.72
2018-09-08T02:59:26.248Z,12.43
2018-09-08T03:00:26.390Z,12.36
2018-09-08T03:01:26.524Z,12.11
2018-09-08T03:02:26.658Z,12.07
2018-09-08T03:03:26.786Z,12.05
2018-09-08T03:04:26.922Z,11.95
2018-09-08T03:05:27.056Z,11.95
2018-09-08T03:06:27.190Z,11.87
2018-09-08T03:07:27.324Z,11.88
2018-09-08T03:08:27.462Z,11.84
2018-09-08T03:09:27.603Z,11.77
2018-09-08T03:10:27.736Z,11.79
2018-09-08T03:11:27.866Z,11.74
2018-09-08T03:12:28.000Z,11.89
2018-09-08T03:13:28.134Z,11.95
2018-09-08T03:14:28.272Z,11.89
2018-09-08T03:15:28.416Z,11.80
2018-09-08T03:16:28.544Z,11.89
2018-09-08T03:17:28.684Z,11.97
2018-09-08T03:18:28.833Z,12.14
2018-09-08T03:19:28.962Z,12.10
2018-09-08T03:20:29.098Z,12.28
2018-09-08T03:21:29.231Z,12.43
2018-09-08T03:22:29.373Z,12.43
2018-09-08T03:23:29.505Z,12.40
2018-09-08T03:24:29.638Z,12.47
2018-09-08T03:25:29.766Z,12.48
2018-09-08T03:26:29.899Z,12.46
2018-09-08T03:27:30.038Z,12.59
2018-09-08T03:28:30.176Z,12.59
2018-09-08T03:29:30.311Z,12.63
2018-09-08T03:30:30.441Z,12.61
2018-09-08T03:31:30.573Z,12.46
2018-09-08T03:32:30.709Z,12.50
2018-09-08T03:33:30.848Z,12.43
2018-09-08T03:34:30.979Z,12.55
2018-09-08T03:35:31.109Z,12.54
2018-09-08T03:36:31.247Z,12.61
2018-09-08T03:37:31.383Z,12.55
2018-09-08T03:38:31.507Z,12.40
2018-09-08T03:39:31.642Z,12.55
2018-09-08T03:40:31.823Z,12.53
2018-09-08T03:41:31.916Z,12.51
2018-09-08T03:42:32.051Z,12.50
2018-09-08T03:43:32.222Z,12.54
2018-09-08T03:44:32.352Z,12.47
2018-09-08T03:45:32.483Z,12.62
2018-09-08T03:46:32.620Z,12.68
2018-09-08T03:47:32.802Z,12.69
2018-09-08T03:48:32.917Z,12.69
2018-09-08T03:49:33.051Z,12.73
2018-09-08T03:50:33.186Z,12.72
2018-09-08T03:51:33.330Z,12.76
2018-09-08T03:52:33.467Z,12.84
2018-09-08T03:53:33.603Z,12.83
2018-09-08T03:54:33.735Z,12.73
2018-09-08T03:55:33.892Z,12.72
2018-09-08T03:56:34.637Z,12.84
2018-09-08T03:57:34.144Z,12.80
2018-09-08T03:58:34.297Z,12.66
2018-09-08T03:59:34.428Z,12.55
2018-09-08T04:00:34.559Z,12.62
2018-09-08T04:01:34.695Z,12.65
2018-09-08T04:02:34.861Z,12.59
2018-09-08T04:03:34.988Z,12.47
2018-09-08T04:04:35.130Z,12.32
2018-09-08T04:05:35.287Z,12.23
2018-09-08T04:06:35.401Z,12.22
2018-09-08T04:07:35.533Z,12.15
2018-09-08T04:08:35.669Z,11.99
2018-09-08T04:09:35.804Z,12.13
2018-09-08T04:10:35.973Z,11.91
2018-09-08T04:11:36.084Z,11.91
2018-09-08T04:12:36.218Z,11.77
2018-09-08T04:13:36.353Z,11.74
2018-09-08T04:14:36.509Z,11.69
2018-09-08T04:15:36.638Z,11.36
2018-09-08T04:16:36.772Z,11.38
2018-09-08T04:17:36.907Z,11.22
2018-09-08T04:18:37.040Z,11.11
2018-09-08T04:19:37.172Z,11.05
2018-09-08T04:20:37.309Z,11.00
2018-09-08T04:21:37.451Z,11.01
2018-09-08T04:22:37.585Z,11.00
2018-09-08T04:23:37.718Z,10.93
2018-09-08T04:24:37.853Z,10.97
2018-09-08T04:25:37.997Z,11.13
2018-09-08T04:26:38.128Z,11.05
2018-09-08T04:27:38.254Z,11.12
2018-09-08T04:28:38.393Z,11.04
2018-09-08T04:29:38.605Z,11.05
2018-09-08T04:30:38.662Z,11.00
2018-09-08T04:31:38.799Z,10.97
2018-09-08T04:32:38.934Z,10.83
2018-09-08T04:33:39.067Z,10.78
2018-09-08T04:34:39.202Z,10.85
2018-09-08T04:35:39.343Z,10.68
2018-09-08T04:36:39.482Z,10.62
2018-09-08T04:37:39.611Z,10.64
2018-09-08T04:38:39.743Z,10.58
2018-09-08T04:39:39.879Z,10.39
2018-09-08T04:40:40.019Z,10.36
2018-09-08T04:41:40.141Z,10.31
2018-09-08T04:42:40.280Z,10.38
2018-09-08T04:43:40.413Z,10.24
2018-09-08T04:44:40.543Z,10.30
2018-09-08T04:45:40.705Z,10.28
2018-09-08T04:46:40.841Z,10.21
2018-09-08T04:47:40.973Z,10.21
2018-09-08T04:48:41.107Z,10.14
2018-09-08T04:49:41.243Z,10.16
2018-09-08T04:50:41.381Z,10.17
2018-09-08T04:51:41.512Z,10.18
2018-09-08T04:52:41.646Z,10.20
2018-09-08T04:53:41.776Z,10.10
2018-09-08T04:54:41.909Z,10.10
2018-09-08T04:55:42.044Z,10.18
2018-09-08T04:56:42.179Z,10.39
2018-09-08T04:57:42.307Z,10.39
2018-09-08T04:58:42.447Z,10.52
2018-09-08T04:59:42.590Z,10.61
2018-09-08T05:00:42.727Z,10.70
2018-09-08T05:01:42.858Z,10.72
2018-09-08T05:02:42.988Z,10.75
2018-09-08T05:03:43.142Z,10.86
2018-09-08T05:04:43.272Z,10.82
2018-09-08T05:05:43.398Z,11.00
2018-09-08T05:06:43.548Z,10.78
2018-09-08T05:07:43.679Z,10.79
2018-09-08T05:08:43.810Z,10.79
2018-09-08T05:09:43.938Z,10.82
2018-09-08T05:10:44.071Z,10.83
2018-09-08T05:11:44.212Z,10.83
2018-09-08T05:12:44.420Z,10.75
2018-09-08T05:13:44.470Z,10.75
2018-09-08T05:14:45.157Z,10.73
2018-09-08T05:17:16.711Z,10.64
2018-09-08T05:18:16.812Z,10.80
2018-09-08T05:19:16.953Z,10.75
2018-09-08T05:20:17.082Z,10.91
2018-09-08T05:21:17.249Z,10.67
2018-09-08T05:22:17.372Z,10.70
2018-09-08T05:23:17.509Z,10.82
2018-09-08T05:24:17.638Z,10.94
2018-09-08T05:25:17.796Z,11.05
2018-09-08T05:26:17.924Z,11.13
2018-09-08T05:27:18.063Z,11.11
2018-09-08T05:28:18.218Z,11.13
2018-09-08T05:29:18.343Z,11.08
2018-09-08T05:30:18.477Z,11.04
2018-09-08T05:31:18.616Z,11.03
2018-09-08T05:32:18.796Z,10.86
2018-09-08T05:33:18.931Z,10.67
2018-09-08T05:34:19.069Z,10.54
2018-09-08T05:35:19.194Z,10.48
2018-09-08T05:36:19.323Z,10.45
2018-09-08T05:37:19.456Z,10.43
2018-09-08T05:38:19.589Z,10.49
2018-09-08T05:39:19.748Z,10.67
2018-09-08T05:40:19.875Z,10.68
2018-09-08T05:41:20.014Z,10.93
2018-09-08T05:42:20.145Z,11.03
2018-09-08T05:43:20.285Z,11.12
2018-09-08T05:44:20.423Z,11.04
2018-09-08T05:45:20.556Z,11.25
2018-09-08T05:46:20.699Z,11.18
2018-09-08T05:47:20.839Z,11.20
2018-09-08T05:48:20.967Z,11.19
2018-09-08T05:49:21.094Z,11.20
2018-09-08T05:50:21.229Z,11.03
2018-09-08T05:51:21.361Z,10.86
2018-09-08T05:52:21.500Z,10.85
2018-09-08T05:53:21.633Z,10.95
2018-09-08T05:54:21.772Z,10.97
2018-09-08T05:55:21.912Z,10.86
2018-09-08T05:56:22.053Z,10.95
2018-09-08T05:57:22.190Z,11.03
2018-09-08T05:58:22.343Z,10.97
2018-09-08T05:59:22.454Z,11.00
2018-09-08T06:00:22.591Z,10.91
2018-09-08T06:01:22.787Z,10.70
2018-09-08T06:02:22.880Z,10.64
2018-09-08T06:03:23.277Z,10.67
2018-09-08T06:04:23.151Z,10.70
2018-09-08T06:05:23.293Z,10.79
2018-09-08T06:06:23.432Z,10.82
2018-09-08T06:07:23.569Z,10.64
2018-09-08T06:08:23.980Z,10.43
2018-09-08T06:09:23.836Z,10.35
2018-09-08T06:10:24.035Z,10.34
2018-09-08T06:11:24.104Z,10.48
2018-09-08T06:12:24.244Z,10.58
2018-09-08T06:13:24.423Z,10.60
2018-09-08T06:14:24.545Z,10.68
2018-09-08T06:15:24.694Z,10.83
2018-09-08T06:16:24.830Z,10.72
2018-09-08T06:17:25.008Z,10.82
2018-09-08T06:18:25.160Z,10.90
2018-09-08T06:19:25.235Z,10.83
2018-09-08T06:20:25.367Z,10.75
2018-09-08T06:21:25.502Z,10.73
2018-09-08T06:22:25.632Z,10.61
2018-09-08T06:23:25.760Z,10.70
2018-09-08T06:24:25.917Z,10.64
2018-09-08T06:25:26.104Z,10.45
2018-09-08T06:26:26.174Z,10.43
2018-09-08T06:27:26.308Z,10.35
2018-09-08T06:28:26.549Z,10.31
2018-09-08T06:29:26.598Z,10.54
2018-09-08T06:30:26.738Z,10.48
2018-09-08T06:31:26.871Z,10.23
2018-09-08T06:32:27.029Z,10.31
2018-09-08T06:33:27.244Z,10.30
2018-09-08T06:34:27.296Z,10.30
2018-09-08T06:35:27.443Z,10.38
2018-09-08T06:36:27.578Z,10.27
2018-09-08T06:37:27.705Z,10.38
2018-09-08T06:38:27.845Z,10.26
2018-09-08T06:39:27.981Z,10.41
2018-09-08T06:40:28.111Z,10.49
2018-09-08T06:41:28.235Z,10.62
2018-09-08T06:42:28.374Z,10.54
2018-09-08T06:43:28.510Z,10.65
2018-09-08T06:44:28.646Z,10.67
2018-09-08T06:45:28.781Z,10.80
2018-09-08T06:46:28.925Z,10.72
2018-09-08T06:47:29.065Z,10.70
2018-09-08T06:48:29.199Z,10.64
2018-09-08T06:49:29.332Z,10.62
2018-09-08T06:50:29.465Z,10.65
2018-09-08T06:51:29.599Z,10.73
2018-09-08T06:52:29.732Z,10.95
2018-09-08T06:53:29.866Z,11.00
2018-09-08T06:54:30.007Z,10.98
2018-09-08T06:55:30.144Z,11.01
2018-09-08T06:56:30.268Z,11.04
2018-09-08T06:57:30.394Z,11.08
2018-09-08T06:58:30.529Z,11.05
2018-09-08T06:59:30.663Z,11.15
2018-09-08T07:00:30.796Z,11.20
2018-09-08T07:01:30.934Z,11.36
2018-09-08T07:02:31.073Z,11.41
2018-09-08T07:03:31.301Z,11.52
2018-09-08T07:04:31.350Z,11.51
2018-09-08T07:05:31.493Z,11.74
2018-09-08T07:06:31.622Z,11.82
2018-09-08T07:07:31.756Z,11.85
2018-09-08T07:08:31.913Z,11.95
2018-09-08T07:09:32.026Z,11.97
2018-09-08T07:10:32.172Z,12.08
2018-09-08T07:11:32.303Z,12.21
2018-09-08T07:12:32.440Z,12.25
2018-09-08T07:13:32.585Z,12.35
2018-09-08T07:14:32.719Z,12.32
2018-09-08T07:15:32.856Z,12.43
2018-09-08T07:16:33.029Z,12.46
2018-09-08T07:17:33.162Z,12.51
2018-09-08T07:18:33.312Z,12.62
2018-09-08T07:19:33.441Z,12.69
2018-09-08T07:20:33.581Z,12.76
2018-09-08T07:21:33.715Z,12.79
2018-09-08T07:22:33.848Z,12.81
2018-09-08T07:23:33.980Z,12.87
2018-09-08T07:24:34.116Z,12.81
2018-09-08T07:25:34.257Z,12.91
2018-09-08T07:26:34.389Z,12.95
2018-09-08T07:27:34.529Z,12.88
2018-09-08T07:28:34.662Z,12.88
2018-09-08T07:29:34.802Z,12.99
2018-09-08T07:30:34.939Z,13.06
2018-09-08T07:31:35.075Z,13.02
2018-09-08T07:32:35.211Z,13.08
2018-09-08T07:33:35.381Z,13.14
2018-09-08T07:34:35.508Z,13.08
2018-09-08T07:35:35.653Z,13.08
2018-09-08T07:36:35.781Z,13.09
2018-09-08T07:37:35.947Z,13.13
2018-09-08T07:38:36.061Z,13.27
2018-09-08T07:39:36.192Z,13.21
2018-09-08T07:40:36.331Z,13.21
2018-09-08T07:41:36.505Z,13.11
2018-09-08T07:42:36.635Z,12.91
2018-09-08T07:43:36.769Z,12.98
2018-09-08T07:44:36.909Z,12.96
2018-09-08T07:45:37.057Z,12.86
2018-09-08T07:46:37.189Z,12.90
2018-09-08T07:47:37.333Z,12.87
2018-09-08T07:48:37.468Z,12.84
2018-09-08T07:49:37.599Z,12.99
2018-09-08T07:50:37.736Z,12.99
2018-09-08T07:51:37.896Z,13.14
2018-09-08T07:52:38.015Z,13.27
2018-09-08T07:53:38.205Z,13.29
2018-09-08T07:54:38.286Z,13.38
2018-09-08T07:55:38.440Z,13.36
2018-09-08T07:56:38.590Z,13.45
2018-09-08T07:57:38.723Z,13.38
2018-09-08T07:58:38.875Z,13.58
2018-09-08T07:59:39.017Z,13.54
2018-09-08T08:00:39.163Z,13.58
2018-09-08T08:01:39.303Z,13.55
2018-09-08T08:02:39.437Z,13.55
2018-09-08T08:03:39.621Z,13.49
2018-09-08T08:04:39.736Z,13.46
2018-09-08T08:05:39.880Z,13.42
2018-09-08T08:06:40.035Z,13.38
2018-09-08T08:07:40.188Z,13.43
2018-09-08T08:08:40.316Z,13.57
2018-09-08T08:09:40.461Z,13.32
2018-09-08T08:10:40.593Z,13.35
2018-09-08T08:11:40.739Z,13.42
2018-09-08T08:12:40.881Z,13.53
2018-09-08T08:13:41.016Z,13.36
2018-09-08T08:14:41.147Z,13.45
2018-09-08T08:15:41.309Z,13.54
2018-09-08T08:16:41.432Z,13.53
2018-09-08T08:17:41.571Z,13.65
2018-09-08T08:18:41.712Z,13.63
2018-09-08T08:19:41.884Z,13.64
2018-09-08T08:20:42.009Z,13.72
2018-09-08T08:21:42.140Z,13.79
2018-09-08T08:22:42.290Z,13.93
2018-09-08T08:23:42.423Z,13.88
2018-09-08T08:24:42.559Z,13.93
2018-09-08T08:25:42.692Z,13.97
2018-09-08T08:26:42.835Z,14.00
2018-09-08T08:27:42.968Z,14.08
2018-09-08T08:28:43.103Z,14.08
2018-09-08T08:29:43.242Z,14.21
2018-09-08T08:30:43.378Z,14.15
2018-09-08T08:31:43.513Z,14.28
2018-09-08T08:32:43.646Z,14.19
2018-09-08T08:33:43.786Z,14.30
2018-09-08T08:34:43.923Z,14.33
2018-09-08T08:35:44.069Z,14.46
2018-09-08T08:36:44.207Z,14.40
2018-09-08T08:37:44.343Z,14.41
2018-09-08T08:38:44.475Z,14.48
2018-09-08T08:39:44.613Z,14.46
2018-09-08T08:40:44.759Z,14.46
2018-09-08T08:41:44.900Z,14.49
2018-09-08T08:42:45.038Z,14.55
2018-09-08T08:43:45.170Z,14.55
2018-09-08T08:44:45.308Z,14.58
2018-09-08T08:45:45.455Z,14.63
2018-09-08T08:46:45.587Z,14.73
2018-09-08T08:47:45.720Z,14.82
2018-09-08T08:48:45.856Z,14.77
2018-09-08T08:49:45.999Z,14.77
2018-09-08T08:50:46.145Z,14.90
2018-09-08T08:51:46.278Z,14.86
2018-09-08T08:52:46.421Z,14.95
2018-09-08T08:53:46.617Z,14.95
2018-09-08T08:54:46.744Z,14.95
2018-09-08T08:55:46.900Z,15.05
2018-09-08T08:56:47.022Z,15.05
2018-09-08T08:57:47.180Z,15.20
2018-09-08T08:58:47.321Z,15.27
2018-09-08T08:59:47.461Z,15.23
2018-09-08T09:00:47.602Z,15.19
2018-09-08T09:01:47.736Z,15.27
2018-09-08T09:02:47.874Z,15.41
2018-09-08T09:03:48.021Z,15.26
2018-09-08T09:04:48.145Z,15.43
2018-09-08T09:05:48.284Z,15.51
2018-09-08T09:06:48.420Z,15.54
2018-09-08T09:07:48.557Z,15.63
2018-09-08T09:08:49.055Z,15.56
2018-09-08T09:09:48.831Z,15.63
2018-09-08T09:10:48.972Z,15.65
2018-09-08T09:11:49.467Z,15.78
2018-09-08T09:12:49.300Z,15.81
2018-09-08T09:13:49.377Z,15.83
2018-09-08T09:14:49.512Z,15.77
2018-09-08T09:15:49.651Z,15.78
2018-09-08T09:16:49.785Z,15.77
2018-09-08T09:17:49.922Z,15.85
2018-09-08T09:18:50.610Z,15.85
2018-09-08T09:19:50.191Z,15.99
2018-09-08T09:20:50.353Z,16.08
2018-09-08T09:21:50.488Z,15.99
2018-09-08T09:22:50.625Z,15.98
2018-09-08T09:23:50.761Z,15.98
2018-09-08T09:24:51.415Z,16.03
2018-09-08T09:25:51.750Z,16.03
2018-09-08T09:26:51.174Z,16.09
2018-09-08T09:27:51.327Z,16.13
2018-09-08T09:28:51.467Z,16.08
2018-09-08T09:29:51.602Z,16.08
2018-09-08T09:30:51.737Z,16.18
2018-09-08T09:31:51.926Z,16.29
2018-09-08T09:32:52.043Z,16.24
2018-09-08T09:33:52.181Z,16.32
2018-09-08T09:34:52.408Z,16.24
2018-09-08T09:35:52.492Z,16.29
2018-09-08T09:36:52.625Z,16.28
2018-09-08T09:37:52.776Z,16.25
2018-09-08T09:38:52.948Z,16.47
2018-09-08T09:39:53.084Z,16.32
2018-09-08T09:40:53.224Z,16.39
2018-09-08T09:41:53.360Z,16.42
2018-09-08T09:42:53.541Z,16.29
2018-09-08T09:43:53.660Z,16.40
2018-09-08T09:44:53.801Z,16.36
2018-09-08T09:45:53.967Z,16.42
2018-09-08T09:46:54.103Z,16.42
2018-09-08T09:47:54.274Z,16.39
2018-09-08T09:48:54.387Z,16.49
2018-09-08T09:49:54.615Z,16.46
2018-09-08T09:50:54.627Z,16.46
2018-09-08T09:51:54.764Z,16.51
2018-09-08T09:52:54.904Z,16.54
2018-09-08T09:53:55.054Z,16.51
2018-09-08T09:54:55.194Z,16.58
2018-09-08T09:55:55.330Z,16.73
2018-09-08T09:56:55.471Z,16.76
2018-09-08T09:57:55.640Z,16.67
2018-09-08T09:58:55.776Z,16.80
2018-09-08T09:59:55.917Z,16.76
2018-09-08T10:00:56.109Z,16.77
2018-09-08T10:01:56.212Z,16.80
2018-09-08T10:02:56.351Z,16.65
2018-09-08T10:03:56.488Z,16.80
2018-09-08T10:04:56.626Z,16.92
2018-09-08T10:05:56.800Z,16.90
2018-09-08T10:06:56.921Z,16.88
2018-09-08T10:07:57.048Z,17.01
2018-09-08T10:08:57.184Z,17.09
2018-09-08T10:09:57.323Z,17.16
2018-09-08T10:10:57.458Z,17.22
2018-09-08T10:11:57.609Z,17.24
2018-09-08T10:12:57.733Z,17.24
2018-09-08T10:13:57.882Z,17.27
2018-09-08T10:14:58.025Z,17.32
2018-09-08T10:15:58.160Z,17.28
2018-09-08T10:16:58.304Z,17.38
2018-09-08T10:17:58.441Z,17.34
2018-09-08T10:18:58.564Z,17.37
2018-09-08T10:19:58.720Z,17.46
2018-09-08T10:20:58.861Z,17.50
2018-09-08T10:21:59.000Z,17.65
2018-09-08T10:22:59.173Z,17.66
2018-09-08T10:24:05.155Z,17.63
2018-09-08T10:24:59.416Z,17.53
2018-09-08T10:25:59.561Z,17.59
2018-09-08T10:26:59.697Z,17.69
2018-09-08T10:27:59.832Z,17.69
2018-09-08T10:28:59.975Z,17.83
2018-09-08T10:30:00.546Z,17.69
2018-09-08T10:31:00.772Z,17.81
2018-09-08T10:32:00.436Z,17.79
2018-09-08T10:33:00.576Z,17.81
2018-09-08T10:34:00.730Z,17.86
2018-09-08T10:35:00.863Z,17.78
2018-09-08T10:36:01.010Z,17.86
2018-09-08T10:37:01.143Z,17.96
2018-09-08T10:38:01.275Z,18.08
2018-09-08T10:39:01.410Z,18.20
2018-09-08T10:40:01.549Z,18.06
2018-09-08T10:41:01.690Z,18.23
2018-09-08T10:42:01.828Z,18.30
2018-09-08T10:43:01.963Z,18.41
2018-09-08T10:44:02.105Z,18.28
2018-09-08T10:45:02.244Z,18.13
2018-09-08T10:46:02.381Z,18.21
2018-09-08T10:47:02.523Z,18.31
2018-09-08T10:48:02.677Z,18.34
2018-09-08T10:49:02.811Z,18.58
2018-09-08T10:50:02.952Z,18.61
2018-09-08T10:51:03.148Z,18.70
2018-09-08T10:52:03.270Z,18.82
2018-09-08T10:53:03.416Z,18.78
2018-09-08T10:54:03.558Z,18.81
2018-09-08T10:55:03.696Z,18.75
2018-09-08T10:56:03.844Z,18.76
2018-09-08T10:57:03.974Z,18.83
2018-09-08T10:58:04.119Z,18.82
2018-09-08T10:59:04.256Z,18.81
2018-09-08T11:00:04.412Z,18.94
2018-09-08T11:01:04.533Z,19.07
2018-09-08T11:02:04.836Z,19.04
2018-09-08T11:03:04.829Z,19.05
2018-09-08T11:04:04.958Z,19.04
2018-09-08T11:05:05.097Z,19.04
2018-09-08T11:06:05.240Z,19.01
2018-09-08T11:07:05.413Z,18.85
2018-09-08T11:08:05.553Z,18.79
2018-09-08T11:09:05.689Z,18.93
2018-09-08T11:10:05.836Z,19.07
2018-09-08T11:11:05.972Z,19.37
2018-09-08T11:12:06.108Z,19.47
2018-09-08T11:13:06.254Z,19.60
2018-09-08T11:14:06.383Z,19.75
2018-09-08T11:15:06.512Z,20.00
2018-09-08T11:16:06.655Z,19.87
2018-09-08T11:17:06.807Z,19.89
2018-09-08T11:18:06.941Z,19.93
2018-09-08T11:19:07.072Z,19.90
2018-09-08T11:20:07.215Z,19.70
2018-09-08T11:21:07.355Z,19.70
2018-09-08T11:22:07.498Z,19.62
2018-09-08T11:23:07.643Z,19.52
2018-09-08T11:24:07.785Z,19.57
2018-09-08T11:25:07.925Z,19.59
2018-09-08T11:26:08.071Z,19.39
2018-09-08T11:27:08.205Z,19.52
2018-09-08T11:28:08.354Z,19.52
2018-09-08T11:29:08.513Z,19.47
2018-09-08T11:30:08.655Z,19.44
2018-09-08T11:31:08.824Z,19.52
2018-09-08T11:32:08.960Z,19.59
2018-09-08T11:33:09.108Z,19.62
2018-09-08T11:34:09.246Z,19.64
2018-09-08T11:35:09.407Z,19.62
2018-09-08T11:36:09.517Z,19.64
2018-09-08T11:37:09.658Z,19.59
2018-09-08T11:38:09.879Z,19.50
2018-09-08T11:39:09.935Z,19.44
2018-09-08T11:40:10.078Z,19.45
2018-09-08T11:41:10.221Z,19.44
2018-09-08T11:42:10.357Z,19.44
2018-09-08T11:43:10.510Z,19.35
2018-09-08T11:44:10.651Z,19.35
2018-09-08T11:45:10.811Z,19.30
2018-09-08T11:46:10.948Z,19.41
2018-09-08T11:47:11.088Z,19.31
2018-09-08T11:48:11.228Z,19.26
2018-09-08T11:49:11.369Z,19.52
2018-09-08T11:50:11.503Z,19.64
2018-09-08T11:51:11.645Z,19.82
2018-09-08T11:52:11.796Z,20.08
2018-09-08T11:53:11.925Z,20.27
2018-09-08T11:54:12.070Z,20.42
2018-09-08T11:55:12.211Z,20.52
2018-09-08T11:56:12.350Z,20.68
2018-09-08T11:57:12.486Z,20.92
2018-09-08T11:58:12.627Z,21.03
2018-09-08T11:59:12.761Z,21.08
2018-09-08T12:00:12.897Z,21.23
2018-09-08T12:01:13.036Z,21.40
2018-09-08T12:02:13.199Z,21.43
2018-09-08T12:03:13.320Z,21.41
2018-09-08T12:04:13.461Z,21.37
2018-09-08T12:05:13.596Z,21.45
2018-09-08T12:06:13.743Z,21.56
2018-09-08T12:07:13.884Z,21.81
2018-09-08T12:08:14.031Z,21.90
2018-09-08T12:09:14.174Z,22.15
2018-09-08T12:10:14.315Z,22.41
2018-09-08T12:11:14.461Z,22.46
2018-09-08T12:12:14.613Z,22.48
2018-09-08T12:13:14.770Z,22.91
2018-09-08T12:14:14.916Z,23.13
2018-09-08T12:15:15.077Z,23.54
2018-09-08T12:16:15.207Z,23.86
2018-09-08T12:17:15.398Z,24.18
2018-09-08T12:18:15.552Z,24.29
2018-09-08T12:19:15.769Z,24.22
2018-09-08T12:20:15.846Z,24.48
2018-09-08T12:21:16.038Z,24.97
2018-09-08T12:22:16.207Z,25.21
2018-09-08T12:23:16.321Z,24.70
2018-09-08T12:24:16.472Z,24.41
2018-09-08T12:25:16.643Z,23.69
2018-09-08T12:26:16.775Z,23.46
2018-09-08T12:27:16.920Z,23.51
2018-09-08T12:28:17.070Z,23.46
2018-09-08T12:29:17.245Z,23.26
2018-09-08T12:30:17.390Z,23.66
2018-09-08T12:31:17.553Z,24.07
2018-09-08T12:32:17.690Z,24.81
2018-09-08T12:33:17.866Z,25.22
2018-09-08T12:34:18.014Z,25.37
2018-09-08T12:35:18.166Z,25.67
2018-09-08T12:36:18.317Z,25.88
2018-09-08T12:37:18.553Z,25.70
2018-09-08T12:38:18.648Z,25.74
2018-09-08T12:39:18.838Z,25.74
2018-09-08T12:40:18.989Z,25.63
2018-09-08T12:41:19.168Z,25.68
2018-09-08T12:42:19.298Z,25.86
2018-09-08T12:43:19.447Z,26.07
2018-09-08T12:44:19.596Z,26.36
2018-09-08T12:45:19.765Z,26.33
2018-09-08T12:46:19.910Z,26.56
2018-09-08T12:47:20.059Z,26.34
2018-09-08T12:48:20.210Z,26.26
2018-09-08T12:49:20.378Z,25.92
2018-09-08T12:50:20.560Z,25.74
2018-09-08T12:51:20.675Z,26.10
2018-09-08T12:52:20.820Z,26.15
2018-09-08T12:53:21.009Z,26.49
2018-09-08T12:54:21.136Z,26.97
2018-09-08T12:55:21.279Z,27.54